createdAt,value
2022-12-24T00:00:10.122Z,97536.81
2022-12-24T00:05:13.715Z,97534.25
2022-12-24T00:10:20.054Z,97529.81
2022-12-24T00:15:23.421Z,97531.59
2022-12-24T00:20:26.636Z,97530.75
2022-12-24T00:25:29.765Z,97528.69
2022-12-24T00:30:33.003Z,97526.00
2022-12-24T00:35:37.932Z,97523.91
2022-12-24T00:40:41.542Z,97529.03
2022-12-24T00:45:44.855Z,97520.72
2022-12-24T00:50:47.993Z,97527.97
2022-12-24T00:55:51.243Z,97525.88
2022-12-24T01:00:54.314Z,97527.50
2022-12-24T01:05:57.450Z,97526.47
2022-12-24T01:11:02.381Z,97526.22
2022-12-24T01:16:17.714Z,97523.53
2022-12-24T01:21:21.175Z,97518.19
2022-12-24T01:26:25.026Z,97516.53
2022-12-24T01:31:28.159Z,97518.66
2022-12-24T01:36:31.168Z,97517.03
2022-12-24T01:41:34.484Z,97522.59
2022-12-24T01:46:38.041Z,97520.97
2022-12-24T01:51:48.001Z,97523.22
2022-12-24T01:57:00.610Z,97526.69
2022-12-24T02:02:04.843Z,97520.16
2022-12-24T02:07:08.523Z,97529.25
2022-12-24T02:12:11.935Z,97525.41
2022-12-24T02:17:36.665Z,97521.09
2022-12-24T02:23:01.631Z,97528.56
2022-12-24T02:28:21.680Z,97519.09
2022-12-24T02:33:42.863Z,97516.66
2022-12-24T02:38:54.063Z,97518.53
2022-12-24T02:43:58.752Z,97503.59
2022-12-24T02:49:02.858Z,97516.41
2022-12-24T02:54:06.618Z,97515.84
2022-12-24T02:59:46.101Z,97509.66
2022-12-24T03:04:56.779Z,97517.72
2022-12-24T03:10:12.009Z,97518.53
2022-12-24T03:15:19.145Z,97526.22
2022-12-24T03:20:28.450Z,97537.78
2022-12-24T03:25:34.059Z,97546.41
2022-12-24T03:30:41.480Z,97547.78
2022-12-24T03:35:45.711Z,97549.66
2022-12-24T03:40:49.175Z,97549.41
2022-12-24T03:45:53.112Z,97555.81
2022-12-24T03:50:56.575Z,97555.81
2022-12-24T03:55:59.935Z,97559.31
2022-12-24T04:01:03.303Z,97557.69
2022-12-24T04:06:10.011Z,97564.91
2022-12-24T04:11:16.359Z,97571.47
2022-12-24T04:16:20.001Z,97580.91
2022-12-24T04:21:23.704Z,97590.00
2022-12-24T04:26:27.250Z,97595.84
2022-12-24T04:31:30.819Z,97598.09
2022-12-24T04:36:35.247Z,97602.69
2022-12-24T04:41:38.629Z,97596.81
2022-12-24T04:46:41.810Z,97597.22
2022-12-24T04:51:46.042Z,97600.34
2022-12-24T04:56:50.263Z,97602.66
2022-12-24T05:01:54.080Z,97602.22
2022-12-24T05:06:57.807Z,97606.09
2022-12-24T05:12:04.959Z,97612.41
2022-12-24T05:17:08.628Z,97621.97
2022-12-24T05:22:13.955Z,97625.13
2022-12-24T05:27:17.437Z,97627.19
2022-12-24T05:32:21.914Z,97629.69
2022-12-24T05:37:25.526Z,97633.44
2022-12-24T05:42:28.833Z,97636.97
2022-12-24T05:47:32.141Z,97626.50
2022-12-24T05:52:35.591Z,97641.31
2022-12-24T05:57:41.479Z,97636.91
2022-12-24T06:02:45.099Z,97631.06
2022-12-24T06:07:50.305Z,97637.25
2022-12-24T06:12:53.830Z,97639.72
2022-12-24T06:17:57.327Z,97643.16
2022-12-24T06:23:00.950Z,97640.69
2022-12-24T06:28:04.852Z,97645.59
2022-12-24T06:33:09.343Z,97656.31
2022-12-24T06:38:13.889Z,97659.78
2022-12-24T06:43:17.576Z,97669.69
2022-12-24T06:48:21.336Z,97662.63
2022-12-24T06:53:24.889Z,97655.34
2022-12-24T06:58:28.376Z,97673.84
2022-12-24T07:03:32.468Z,97673.00
2022-12-24T07:08:36.298Z,97673.50
2022-12-24T07:13:41.136Z,97670.38
2022-12-24T07:18:45.020Z,97665.22
2022-12-24T07:23:49.349Z,97670.75
2022-12-24T07:28:53.048Z,97667.88
2022-12-24T07:33:56.499Z,97663.66
2022-12-24T07:39:00.025Z,97663.00
2022-12-24T07:44:03.776Z,97659.63
2022-12-24T07:49:07.727Z,97653.81
2022-12-24T07:54:11.426Z,97654.44
2022-12-24T07:59:15.104Z,97658.69
2022-12-24T08:04:18.598Z,97657.88
2022-12-24T08:09:21.965Z,97654.56
2022-12-24T08:14:25.471Z,97657.38
2022-12-24T08:19:28.924Z,97648.03
2022-12-24T08:24:32.306Z,97654.69
2022-12-24T08:29:42.823Z,97643.66
2022-12-24T08:34:46.957Z,97637.31
2022-12-24T08:39:50.261Z,97628.97
2022-12-24T08:44:53.769Z,97620.63
2022-12-24T08:49:57.300Z,97621.88
2022-12-24T08:55:00.961Z,97614.44
2022-12-24T09:00:08.362Z,97610.78
2022-12-24T09:05:12.018Z,97615.31
2022-12-24T09:10:15.721Z,97618.09
2022-12-24T09:15:19.867Z,97610.28
2022-12-24T09:20:23.383Z,97609.28
2022-12-24T09:25:27.150Z,97618.56
2022-12-24T09:30:33.869Z,97604.44
2022-12-24T09:35:40.277Z,97607.38
2022-12-24T09:40:44.780Z,97609.25
2022-12-24T09:45:51.782Z,97610.78
2022-12-24T09:51:12.882Z,97596.13
2022-12-24T09:56:23.027Z,97592.31
2022-12-24T10:01:29.512Z,97591.81
2022-12-24T10:07:11.280Z,97588.75
2022-12-24T10:12:23.432Z,97592.22
2022-12-24T10:18:06.723Z,97580.88
2022-12-24T10:23:43.776Z,97574.69
2022-12-24T10:29:07.412Z,97577.41
2022-12-24T10:34:22.815Z,97576.66
2022-12-24T10:39:27.414Z,97578.19
2022-12-24T10:44:34.299Z,97570.34
2022-12-24T10:49:56.507Z,97577.28
2022-12-24T10:55:18.326Z,97582.88
2022-12-24T11:00:29.962Z,97574.47
2022-12-24T11:05:39.818Z,97578.50
2022-12-24T11:11:02.761Z,97583.06
2022-12-24T11:16:08.657Z,97586.94
2022-12-24T11:21:18.906Z,97581.06
2022-12-24T11:26:24.778Z,97585.16
2022-12-24T11:31:28.193Z,97575.53
2022-12-24T11:36:32.405Z,97579.63
2022-12-24T11:41:39.967Z,97592.63
2022-12-24T11:46:44.481Z,97588.53
2022-12-24T11:52:01.330Z,97593.88
2022-12-24T11:57:05.850Z,97595.94
2022-12-24T12:02:38.998Z,97605.66
2022-12-24T12:07:43.341Z,97599.50
2022-12-24T12:12:53.397Z,97601.00
2022-12-24T12:18:16.752Z,97597.72
2022-12-24T12:23:41.291Z,97611.75
2022-12-24T12:29:11.246Z,97622.66
2022-12-24T12:34:24.039Z,97616.03
2022-12-24T12:39:27.737Z,97618.13
2022-12-24T12:45:10.049Z,97624.63
2022-12-24T12:50:27.606Z,97627.78
2022-12-24T12:55:55.815Z,97627.00
2022-12-24T13:01:33.176Z,97629.09
2022-12-24T13:07:19.735Z,97634.28
2022-12-24T13:12:40.903Z,97648.25
2022-12-24T13:18:05.671Z,97646.00
2022-12-24T13:23:20.092Z,97662.22
2022-12-24T13:28:23.370Z,97660.91
2022-12-24T13:33:48.899Z,97670.81
2022-12-24T13:38:55.303Z,97670.81
2022-12-24T13:44:06.779Z,97674.41
2022-12-24T13:49:21.886Z,97675.22
2022-12-24T13:54:26.214Z,97682.84
2022-12-24T13:59:38.979Z,97678.13
2022-12-24T14:04:42.448Z,97678.19
2022-12-24T14:09:50.323Z,97686.28
2022-12-24T14:14:53.794Z,97689.84
2022-12-24T14:20:00.246Z,97696.56
2022-12-24T14:25:15.204Z,97704.34
2022-12-24T14:30:26.002Z,97693.94
2022-12-24T14:35:36.356Z,97701.19
2022-12-24T14:41:06.864Z,97703.53
2022-12-24T14:46:13.007Z,97701.69
2022-12-24T14:51:36.392Z,97702.84
2022-12-24T14:56:40.133Z,97706.94
2022-12-24T15:01:45.608Z,97697.13
2022-12-24T15:06:57.418Z,97695.13
2022-12-24T15:12:03.857Z,97704.47
2022-12-24T15:17:08.831Z,97699.56
2022-12-24T15:22:22.818Z,97703.53
2022-12-24T15:27:29.138Z,97704.81
2022-12-24T15:32:34.835Z,97706.09
2022-12-24T15:37:41.936Z,97704.69
2022-12-24T15:42:45.836Z,97703.66
2022-12-24T15:48:10.147Z,97708.16
2022-12-24T15:53:26.208Z,97709.84
2022-12-24T15:58:33.933Z,97716.00
2022-12-24T16:03:40.154Z,97722.53
2022-12-24T16:08:47.528Z,97719.84
2022-12-24T16:13:51.822Z,97721.72
2022-12-24T16:19:00.302Z,97732.44
2022-12-24T16:24:26.599Z,97743.19
2022-12-24T16:29:30.053Z,97743.66
2022-12-24T16:34:34.596Z,97750.28
2022-12-24T16:39:38.459Z,97763.13
2022-12-24T16:44:43.975Z,97751.19
2022-12-24T16:49:47.597Z,97755.75
2022-12-24T16:54:51.253Z,97758.91
2022-12-24T16:59:55.793Z,97760.88
2022-12-24T17:04:59.366Z,97771.69
2022-12-24T17:10:02.940Z,97769.22
2022-12-24T17:15:07.398Z,97774.00
2022-12-24T17:20:11.383Z,97786.84
2022-12-24T17:25:14.941Z,97791.81
2022-12-24T17:30:18.674Z,97791.81
2022-12-24T17:35:22.066Z,97793.09
2022-12-24T17:40:25.895Z,97807.09
2022-12-24T17:45:29.293Z,97793.69
2022-12-24T17:50:32.486Z,97793.44
2022-12-24T17:55:41.460Z,97796.50
2022-12-24T18:00:44.806Z,97792.34
2022-12-24T18:05:48.014Z,97795.38
2022-12-24T18:10:51.304Z,97790.53
2022-12-24T18:15:54.466Z,97790.88
2022-12-24T18:20:57.713Z,97796.22
2022-12-24T18:26:06.023Z,97804.28
2022-12-24T18:31:13.809Z,97810.84
2022-12-24T18:36:19.523Z,97822.63
2022-12-24T18:41:26.314Z,97813.53
2022-12-24T18:46:32.328Z,97818.78
2022-12-24T18:51:36.070Z,97814.00
2022-12-24T18:56:39.486Z,97820.19
2022-12-24T19:01:43.089Z,97823.47
2022-12-24T19:06:52.640Z,97829.06
2022-12-24T19:11:58.135Z,97837.47
2022-12-24T19:17:07.562Z,97844.00
2022-12-24T19:22:12.033Z,97840.06
2022-12-24T19:27:15.613Z,97842.16
2022-12-24T19:32:20.442Z,97832.34
2022-12-24T19:37:24.243Z,97841.88
2022-12-24T19:42:27.807Z,97844.09
2022-12-24T19:47:31.377Z,97849.31
2022-12-24T19:52:34.916Z,97848.34
2022-12-24T19:57:38.547Z,97858.03
2022-12-24T20:02:44.087Z,97853.94
2022-12-24T20:07:47.827Z,97847.38
2022-12-24T20:12:54.472Z,97835.84
2022-12-24T20:18:00.129Z,97840.16
2022-12-24T20:23:04.455Z,97836.88
2022-12-24T20:28:08.363Z,97836.97
2022-12-24T20:33:12.796Z,97832.56
2022-12-24T20:38:16.533Z,97836.50
2022-12-24T20:43:24.252Z,97824.47
2022-12-24T20:48:30.418Z,97835.88
2022-12-24T20:53:35.637Z,97836.75
2022-12-24T20:58:39.924Z,97850.88
2022-12-24T21:03:45.450Z,97854.25
2022-12-24T21:08:50.958Z,97856.63
2022-12-24T21:13:54.772Z,97854.38
2022-12-24T21:18:59.064Z,97846.59
2022-12-24T21:24:04.651Z,97834.16
2022-12-24T21:29:08.204Z,97829.59
2022-12-24T21:34:12.199Z,97833.34
2022-12-24T21:39:16.596Z,97825.13
2022-12-24T21:44:20.171Z,97836.69
2022-12-24T21:49:23.903Z,97833.34
2022-12-24T21:54:29.238Z,97829.59
2022-12-24T21:59:32.780Z,97825.28
2022-12-24T22:04:36.409Z,97818.38
2022-12-24T22:09:40.645Z,97826.41
2022-12-24T22:14:44.361Z,97834.66
2022-12-24T22:19:48.904Z,97827.66
2022-12-24T22:24:52.589Z,97822.31
2022-12-24T22:29:55.940Z,97829.53
2022-12-24T22:34:59.195Z,97830.81
2022-12-24T22:40:02.609Z,97824.81
2022-12-24T22:45:07.583Z,97819.44
2022-12-24T22:50:11.754Z,97825.50
2022-12-24T22:55:15.680Z,97816.03
2022-12-24T23:00:41.664Z,97812.44
2022-12-24T23:05:45.703Z,97807.91
2022-12-24T23:10:50.143Z,97808.38
2022-12-24T23:15:54.461Z,97813.13
2022-12-24T23:20:57.876Z,97806.13
2022-12-24T23:26:11.496Z,97797.88
2022-12-24T23:31:17.034Z,97802.84
2022-12-24T23:36:20.973Z,97808.06
2022-12-24T23:41:24.478Z,97817.63
2022-12-24T23:46:28.104Z,97808.63
2022-12-24T23:51:32.302Z,97809.78
2022-12-24T23:56:35.910Z,97796.19
